Terminal Aerodrome Forecast
Issued by NWS Sterling, VA

Current Version | Previous Version | Graphics & Text | Print | Product List | Glossary Off
Versions: 1 2 3 4 5 6 7 8 9 10 11 12 13 14 15 16 17 18 19 20 21 22 23 24 25

000
FTUS41 KLWX 301700 RRA
TAFIAD
TAF
KIAD 301743Z 3018/0124 00000KT P6SM BKN012 OVC015
     FM302300 00000KT P6SM BKN040 BKN150
     FM010400 00000KT 5SM BR BKN040
     FM010700 00000KT 1SM BR BKN003
     FM011400 02004KT P6SM BKN025
     FM011800 VRB03KT P6SM BKN050=

USA.gov is the U.S. government's official web portal to all federal, state and local government web resources and services.